createdAt,value
2023-05-04T00:00:49.551Z,3.47
2023-05-04T00:03:16.162Z,3.20
2023-05-04T00:05:42.679Z,3.45
2023-05-04T00:08:09.122Z,3.45
2023-05-04T00:10:35.621Z,3.40
2023-05-04T00:13:02.109Z,3.72
2023-05-04T00:15:30.258Z,3.45
2023-05-04T00:17:57.042Z,3.78
2023-05-04T00:20:23.465Z,4.05
2023-05-04T00:22:50.210Z,3.42
2023-05-04T00:25:16.652Z,3.10
2023-05-04T00:27:43.015Z,3.50
2023-05-04T00:30:09.739Z,3.70
2023-05-04T00:32:36.158Z,3.75
2023-05-04T00:35:02.696Z,4.13
2023-05-04T00:37:29.168Z,3.65
2023-05-04T00:39:55.605Z,3.88
2023-05-04T00:42:22.062Z,3.35
2023-05-04T00:44:48.462Z,3.88
2023-05-04T00:47:16.928Z,3.92
2023-05-04T00:49:49.120Z,3.80
2023-05-04T00:52:16.858Z,4.07
2023-05-04T00:54:46.495Z,3.88
2023-05-04T00:57:14.298Z,3.70
2023-05-04T00:59:41.029Z,3.90
2023-05-04T01:02:07.469Z,4.10
2023-05-04T01:04:34.079Z,4.18
2023-05-04T01:07:15.570Z,3.78
2023-05-04T01:09:49.768Z,3.83
2023-05-04T01:12:40.755Z,3.72
2023-05-04T01:15:12.072Z,3.58
2023-05-04T01:17:39.006Z,3.80
2023-05-04T01:20:06.721Z,4.57
2023-05-04T01:22:33.349Z,3.70
2023-05-04T01:24:59.810Z,4.20
2023-05-04T01:27:46.152Z,4.22
2023-05-04T01:32:47.201Z,4.05
2023-05-04T01:35:14.080Z,3.85
2023-05-04T01:37:41.095Z,4.25
2023-05-04T01:40:08.672Z,4.63
2023-05-04T01:42:35.492Z,4.18
2023-05-04T01:45:03.164Z,4.25
2023-05-04T01:47:29.583Z,4.43
2023-05-04T01:49:56.028Z,3.83
2023-05-04T01:52:22.636Z,4.32
2023-05-04T01:54:49.066Z,4.72
2023-05-04T01:57:15.679Z,4.40
2023-05-04T01:59:42.081Z,4.47
2023-05-04T02:02:08.748Z,4.65
2023-05-04T02:04:35.685Z,4.93
2023-05-04T02:07:02.066Z,4.90
2023-05-04T02:09:29.360Z,5.07
2023-05-04T02:11:55.817Z,4.57
2023-05-04T02:14:22.161Z,5.03
2023-05-04T02:16:48.597Z,4.82
2023-05-04T02:19:15.018Z,5.03
2023-05-04T02:21:42.207Z,4.63
2023-05-04T02:24:08.623Z,4.93
2023-05-04T02:26:36.216Z,4.63
2023-05-04T02:29:06.059Z,4.60
2023-05-04T02:31:33.289Z,5.25
2023-05-04T02:34:00.576Z,5.20
2023-05-04T02:36:27.409Z,5.00
2023-05-04T02:38:55.108Z,5.85
2023-05-04T02:41:21.814Z,5.15
2023-05-04T02:43:48.247Z,5.20
2023-05-04T02:46:14.683Z,4.53
2023-05-04T02:48:41.322Z,4.63
2023-05-04T02:51:07.762Z,4.68
2023-05-04T02:53:34.117Z,4.97
2023-05-04T02:56:00.540Z,5.30
2023-05-04T02:58:27.060Z,5.43
2023-05-04T03:00:57.764Z,5.03
2023-05-04T03:03:24.255Z,4.93
2023-05-04T03:05:50.782Z,4.85
2023-05-04T03:08:17.200Z,5.40
2023-05-04T03:10:43.660Z,5.15
2023-05-04T03:13:10.218Z,5.38
2023-05-04T03:15:36.740Z,4.80
2023-05-04T03:18:03.377Z,5.03
2023-05-04T03:20:29.801Z,4.70
2023-05-04T03:22:56.226Z,5.00
2023-05-04T03:25:22.654Z,4.80
2023-05-04T03:27:49.193Z,4.65
2023-05-04T03:30:15.728Z,5.00
2023-05-04T03:32:42.209Z,5.30
2023-05-04T03:35:09.312Z,4.68
2023-05-04T03:37:35.954Z,5.07
2023-05-04T03:40:02.672Z,5.47
2023-05-04T03:42:29.254Z,5.47
2023-05-04T03:44:55.595Z,5.47
2023-05-04T03:47:22.309Z,4.72
2023-05-04T03:49:48.762Z,5.32
2023-05-04T03:52:15.176Z,5.20
2023-05-04T03:54:41.600Z,5.68
2023-05-04T03:57:08.039Z,5.28
2023-05-04T03:59:34.492Z,5.85
2023-05-04T04:02:01.290Z,6.22
2023-05-04T04:04:27.900Z,5.45
2023-05-04T04:06:54.333Z,6.15
2023-05-04T04:09:20.719Z,5.18
2023-05-04T04:11:47.272Z,5.65
2023-05-04T04:14:13.647Z,6.03
2023-05-04T04:16:40.225Z,5.05
2023-05-04T04:19:07.092Z,5.40
2023-05-04T04:21:33.576Z,4.95
2023-05-04T04:24:00.041Z,4.95
2023-05-04T04:26:26.851Z,4.55
2023-05-04T04:28:53.173Z,4.70
2023-05-04T04:31:20.193Z,4.60
2023-05-04T04:33:47.292Z,4.60
2023-05-04T04:36:16.695Z,4.60
2023-05-04T04:38:43.375Z,4.63
2023-05-04T04:41:09.993Z,4.55
2023-05-04T04:43:36.353Z,4.38
2023-05-04T04:46:04.015Z,4.30
2023-05-04T04:48:31.348Z,4.55
2023-05-04T04:50:58.379Z,4.70
2023-05-04T04:53:24.848Z,4.18
2023-05-04T04:55:52.191Z,4.40
2023-05-04T04:58:18.585Z,4.45
2023-05-04T05:00:45.359Z,4.88
2023-05-04T05:03:11.958Z,4.30
2023-05-04T05:05:38.366Z,4.78
2023-05-04T05:08:04.968Z,4.68
2023-05-04T05:10:31.434Z,3.92
2023-05-04T05:12:58.039Z,4.90
2023-05-04T05:15:24.545Z,4.57
2023-05-04T05:17:51.009Z,4.53
2023-05-04T05:20:17.465Z,4.47
2023-05-04T05:22:43.995Z,4.57
2023-05-04T05:25:11.043Z,4.38
2023-05-04T05:27:37.729Z,5.22
2023-05-04T05:30:05.716Z,4.60
2023-05-04T05:32:32.650Z,4.75
2023-05-04T05:34:59.046Z,5.10
2023-05-04T05:37:25.464Z,4.65
2023-05-04T05:39:51.865Z,5.10
2023-05-04T05:42:18.597Z,5.22
2023-05-04T05:44:44.993Z,5.30
2023-05-04T05:47:11.398Z,5.30
2023-05-04T05:49:37.844Z,4.97
2023-05-04T05:52:04.501Z,4.63
2023-05-04T05:54:32.193Z,4.78
2023-05-04T05:56:59.040Z,4.72
2023-05-04T05:59:25.535Z,4.80
2023-05-04T06:01:51.979Z,5.10
2023-05-04T06:04:18.558Z,4.40
2023-05-04T06:06:46.151Z,4.75
2023-05-04T06:09:13.147Z,5.00
2023-05-04T06:11:39.553Z,4.93
2023-05-04T06:14:06.094Z,4.70
2023-05-04T06:16:32.623Z,5.07
2023-05-04T06:18:59.244Z,4.82
2023-05-04T06:21:25.812Z,4.57
2023-05-04T06:23:52.133Z,5.20
2023-05-04T06:26:20.239Z,5.38
2023-05-04T06:28:46.587Z,4.80
2023-05-04T06:31:13.540Z,4.63
2023-05-04T06:33:40.000Z,4.68
2023-05-04T06:36:06.655Z,4.60
2023-05-04T06:38:34.681Z,5.30
2023-05-04T06:41:03.304Z,4.25
2023-05-04T06:43:29.653Z,4.13
2023-05-04T06:45:56.776Z,4.93
2023-05-04T06:48:23.323Z,4.50
2023-05-04T06:50:49.767Z,3.90
2023-05-04T06:53:16.720Z,4.15
2023-05-04T06:55:43.083Z,4.28
2023-05-04T06:58:09.567Z,4.30
2023-05-04T07:00:36.117Z,4.15
2023-05-04T07:03:02.614Z,4.47
2023-05-04T07:05:29.123Z,3.72
2023-05-04T07:07:55.706Z,4.57
2023-05-04T07:10:22.347Z,5.00
2023-05-04T07:12:48.984Z,4.78
2023-05-04T07:15:15.834Z,4.63
2023-05-04T07:17:42.361Z,4.88
2023-05-04T07:20:09.130Z,3.95
2023-05-04T07:22:35.565Z,4.85
2023-05-04T07:25:02.024Z,4.30
2023-05-04T07:27:28.573Z,4.18
2023-05-04T07:29:55.461Z,4.25
2023-05-04T07:32:22.056Z,4.45
2023-05-04T07:34:48.520Z,5.10
2023-05-04T07:37:15.964Z,4.88
2023-05-04T07:39:42.558Z,4.47
2023-05-04T07:42:11.521Z,4.82
2023-05-04T07:44:38.273Z,4.53
2023-05-04T07:47:04.668Z,4.63
2023-05-04T07:49:31.407Z,4.70
2023-05-04T07:51:57.832Z,4.80
2023-05-04T07:54:24.228Z,4.30
2023-05-04T07:56:50.595Z,4.50
2023-05-04T07:59:20.277Z,4.70
2023-05-04T08:01:50.037Z,4.07
2023-05-04T08:04:16.493Z,3.85
2023-05-04T08:06:43.020Z,4.75
2023-05-04T08:09:09.465Z,3.95
2023-05-04T08:11:35.897Z,4.53
2023-05-04T08:14:02.571Z,4.63
2023-05-04T08:16:29.385Z,4.43
2023-05-04T08:18:59.706Z,4.57
2023-05-04T08:21:26.162Z,4.28
2023-05-04T08:23:52.980Z,4.15
2023-05-04T08:26:20.100Z,4.22
2023-05-04T08:28:46.798Z,4.22
2023-05-04T08:31:13.395Z,3.65
2023-05-04T08:33:39.984Z,3.75
2023-05-04T08:36:09.055Z,3.90
2023-05-04T08:38:36.120Z,3.70
2023-05-04T08:41:06.329Z,4.10
2023-05-04T08:43:36.737Z,3.67
2023-05-04T08:46:04.785Z,3.70
2023-05-04T08:48:32.612Z,3.40
2023-05-04T08:50:59.056Z,3.75
2023-05-04T08:53:27.025Z,3.13
2023-05-04T08:55:55.890Z,3.80
2023-05-04T08:58:24.090Z,3.65
2023-05-04T09:00:51.091Z,3.58
2023-05-04T09:03:19.016Z,4.07
2023-05-04T09:05:46.263Z,3.92
2023-05-04T09:08:13.078Z,3.83
2023-05-04T09:10:39.526Z,3.78
2023-05-04T09:13:05.905Z,3.88
2023-05-04T09:15:32.679Z,3.35
2023-05-04T09:18:02.228Z,4.20
2023-05-04T09:20:29.719Z,4.15
2023-05-04T09:23:07.318Z,3.58
2023-05-04T09:25:54.774Z,3.67
2023-05-04T09:28:33.599Z,3.20
2023-05-04T09:31:01.395Z,3.45
2023-05-04T09:33:28.531Z,3.60
2023-05-04T09:35:55.606Z,3.97
2023-05-04T09:38:32.533Z,3.38
2023-05-04T09:40:58.959Z,3.72
2023-05-04T09:43:25.430Z,3.75
2023-05-04T09:45:51.893Z,3.67
2023-05-04T09:48:25.736Z,3.58
2023-05-04T09:50:57.350Z,4.40
2023-05-04T09:53:25.185Z,3.67
2023-05-04T09:56:03.937Z,3.65
2023-05-04T09:58:32.112Z,4.03
2023-05-04T10:01:01.173Z,4.18
2023-05-04T10:03:28.166Z,4.28
2023-05-04T10:05:54.736Z,4.25
2023-05-04T10:08:21.462Z,4.28
2023-05-04T10:10:48.169Z,4.03
2023-05-04T10:13:14.702Z,4.10
2023-05-04T10:16:01.325Z,4.53
2023-05-04T10:18:31.019Z,4.10
2023-05-04T10:21:30.859Z,4.40
2023-05-04T10:24:18.340Z,4.00
2023-05-04T10:27:05.561Z,4.00
2023-05-04T10:29:35.999Z,4.47
2023-05-04T10:32:02.861Z,4.10
2023-05-04T10:34:34.444Z,3.90
2023-05-04T10:37:02.824Z,3.55
2023-05-04T10:39:31.736Z,4.30
2023-05-04T10:42:06.931Z,4.22
2023-05-04T10:44:37.377Z,4.97
2023-05-04T10:47:06.622Z,4.78
2023-05-04T10:49:34.203Z,4.70
2023-05-04T10:52:07.930Z,3.97
2023-05-04T10:54:36.161Z,4.05
2023-05-04T10:57:09.142Z,4.38
2023-05-04T10:59:36.985Z,4.07
2023-05-04T11:02:05.089Z,3.97
2023-05-04T11:04:32.269Z,4.05
2023-05-04T11:07:06.664Z,4.15
2023-05-04T11:09:38.108Z,3.67
2023-05-04T11:12:04.928Z,5.15
2023-05-04T11:14:31.265Z,3.80
2023-05-04T11:17:23.897Z,4.03
2023-05-04T11:19:53.994Z,3.60
2023-05-04T11:22:20.846Z,3.50
2023-05-04T11:24:48.588Z,5.60
2023-05-04T11:27:29.603Z,4.03
2023-05-04T11:30:04.468Z,2.65
2023-05-04T11:32:39.493Z,3.00
2023-05-04T11:35:09.489Z,3.70
2023-05-04T11:37:40.616Z,2.83
2023-05-04T11:40:19.284Z,2.13
2023-05-04T11:42:46.643Z,1.85
2023-05-04T11:45:19.973Z,2.28
2023-05-04T11:47:47.322Z,2.08
2023-05-04T11:50:16.756Z,2.17
2023-05-04T11:52:44.272Z,2.20
2023-05-04T11:55:12.598Z,2.30
2023-05-04T11:57:39.821Z,2.40
2023-05-04T12:00:08.153Z,2.50
2023-05-04T12:02:35.419Z,2.90
2023-05-04T12:05:02.086Z,2.65
2023-05-04T12:07:28.540Z,2.60
2023-05-04T12:09:54.933Z,2.60
2023-05-04T12:12:21.472Z,2.92
2023-05-04T12:14:52.078Z,3.03
2023-05-04T12:17:20.281Z,3.22
2023-05-04T12:19:50.911Z,2.90
2023-05-04T12:22:17.875Z,3.25
2023-05-04T12:24:44.310Z,3.30
2023-05-04T12:27:14.600Z,3.60
2023-05-04T12:29:41.258Z,2.95
2023-05-04T12:32:08.272Z,3.13
2023-05-04T12:34:36.719Z,3.30
2023-05-04T12:37:03.087Z,3.10
2023-05-04T12:39:32.614Z,2.75
2023-05-04T12:41:59.634Z,3.03
2023-05-04T12:44:26.353Z,3.10
2023-05-04T12:46:55.043Z,3.72
2023-05-04T12:49:22.363Z,3.95
2023-05-04T12:51:51.762Z,3.50
2023-05-04T12:54:18.116Z,3.60
2023-05-04T12:56:44.600Z,3.70
2023-05-04T12:59:11.025Z,3.38
2023-05-04T13:01:37.431Z,3.33
2023-05-04T13:04:03.811Z,3.15
2023-05-04T13:06:30.256Z,3.30
2023-05-04T13:08:57.470Z,3.47
2023-05-04T13:11:24.909Z,3.30
2023-05-04T13:13:52.668Z,4.07
2023-05-04T13:16:19.061Z,3.97
2023-05-04T13:18:45.480Z,3.42
2023-05-04T13:21:12.951Z,2.55
2023-05-04T13:23:39.303Z,3.10
2023-05-04T13:26:06.549Z,2.83
2023-05-04T13:28:33.047Z,3.47
2023-05-04T13:30:59.622Z,3.17
2023-05-04T13:33:29.834Z,2.90
2023-05-04T13:35:58.527Z,2.58
2023-05-04T13:38:25.120Z,2.88
2023-05-04T13:40:51.543Z,3.22
2023-05-04T13:43:17.923Z,3.35
2023-05-04T13:45:44.261Z,2.60
2023-05-04T13:48:10.673Z,3.08
2023-05-04T13:50:37.572Z,2.75
2023-05-04T13:53:04.227Z,3.45
2023-05-04T13:55:30.774Z,3.28
2023-05-04T13:57:57.153Z,2.95
2023-05-04T14:00:23.511Z,2.90
2023-05-04T14:02:49.983Z,2.72
2023-05-04T14:05:16.395Z,2.60
2023-05-04T14:07:42.792Z,2.22
2023-05-04T14:10:09.658Z,2.45
2023-05-04T14:12:36.057Z,2.50
2023-05-04T14:15:02.525Z,2.83
2023-05-04T14:17:29.136Z,2.90
2023-05-04T14:19:56.092Z,2.50
2023-05-04T14:22:23.534Z,2.28
2023-05-04T14:24:50.712Z,2.30
2023-05-04T14:27:17.517Z,2.47
2023-05-04T14:29:44.841Z,2.38
2023-05-04T14:32:13.030Z,2.53
2023-05-04T14:34:39.441Z,2.33
2023-05-04T14:37:05.854Z,2.40
2023-05-04T14:39:32.229Z,2.60
2023-05-04T14:41:59.422Z,2.20
2023-05-04T14:44:27.811Z,1.90
2023-05-04T14:46:54.197Z,2.10
2023-05-04T14:49:35.762Z,2.15
2023-05-04T14:52:03.781Z,2.17
2023-05-04T14:54:30.316Z,2.80
2023-05-04T14:56:56.914Z,2.95
2023-05-04T14:59:23.446Z,3.47
2023-05-04T15:01:50.159Z,2.50
2023-05-04T15:04:17.507Z,2.40
2023-05-04T15:06:43.883Z,2.78
2023-05-04T15:09:10.219Z,2.60
2023-05-04T15:11:36.688Z,2.42
2023-05-04T15:14:03.378Z,2.28
2023-05-04T15:16:32.325Z,2.97
2023-05-04T15:18:59.373Z,2.67
2023-05-04T15:21:26.054Z,2.80
2023-05-04T15:23:52.412Z,2.80
2023-05-04T15:26:18.752Z,2.88
2023-05-04T15:28:45.092Z,2.45
2023-05-04T15:31:12.928Z,3.10
2023-05-04T15:33:39.453Z,2.60
2023-05-04T15:36:07.997Z,2.67
2023-05-04T15:38:35.023Z,2.72
2023-05-04T15:41:01.804Z,2.78
2023-05-04T15:43:28.303Z,2.75
2023-05-04T15:45:55.211Z,2.60
2023-05-04T15:48:22.397Z,2.50
2023-05-04T15:50:48.812Z,2.70
2023-05-04T15:53:15.289Z,2.40
2023-05-04T15:55:41.771Z,2.53
2023-05-04T15:58:08.276Z,2.40
2023-05-04T16:00:34.699Z,2.20
2023-05-04T16:03:01.344Z,2.30
2023-05-04T16:05:27.790Z,2.47
2023-05-04T16:07:54.499Z,2.33
2023-05-04T16:10:20.873Z,2.60
2023-05-04T16:12:47.309Z,1.95
2023-05-04T16:15:17.282Z,2.20
2023-05-04T16:17:43.733Z,1.85
2023-05-04T16:20:10.695Z,2.20
2023-05-04T16:22:37.277Z,2.08
2023-05-04T16:25:03.770Z,2.10
2023-05-04T16:27:30.170Z,1.90
2023-05-04T16:29:56.556Z,2.20
2023-05-04T16:32:23.363Z,2.20
2023-05-04T16:34:49.750Z,1.88
2023-05-04T16:37:17.316Z,1.80
2023-05-04T16:39:43.719Z,1.70
2023-05-04T16:42:10.163Z,2.00
2023-05-04T16:44:36.546Z,2.10
2023-05-04T16:47:02.919Z,1.65
2023-05-04T16:49:29.730Z,2.20
2023-05-04T16:51:56.263Z,1.65
2023-05-04T16:54:24.031Z,2.00
2023-05-04T16:56:50.795Z,2.10
2023-05-04T16:59:17.156Z,2.00
2023-05-04T17:01:44.058Z,1.60
2023-05-04T17:04:10.845Z,1.88
2023-05-04T17:06:37.727Z,1.60
2023-05-04T17:09:04.443Z,1.90
2023-05-04T17:11:31.631Z,1.70
2023-05-04T17:13:58.785Z,2.20
2023-05-04T17:16:25.379Z,1.80
2023-05-04T17:18:51.782Z,1.70
2023-05-04T17:21:18.108Z,1.60
2023-05-04T17:23:44.490Z,1.67
2023-05-04T17:26:10.969Z,1.70
2023-05-04T17:28:37.378Z,1.80
2023-05-04T17:31:03.739Z,1.70
2023-05-04T17:33:30.359Z,1.40
2023-05-04T17:35:57.192Z,1.70
2023-05-04T17:38:23.541Z,1.80
2023-05-04T17:40:49.907Z,2.05
2023-05-04T17:43:16.271Z,1.40
2023-05-04T17:45:42.880Z,1.73
2023-05-04T17:48:09.304Z,1.63
2023-05-04T17:50:35.715Z,1.70
2023-05-04T17:53:02.190Z,1.75
2023-05-04T17:55:31.643Z,1.50
2023-05-04T17:57:58.122Z,1.92
2023-05-04T18:00:24.823Z,1.80
2023-05-04T18:02:51.317Z,1.70
2023-05-04T18:05:17.908Z,2.13
2023-05-04T18:07:44.511Z,1.55
2023-05-04T18:10:11.207Z,1.77
2023-05-04T18:12:38.407Z,1.90
2023-05-04T18:15:08.217Z,1.83
2023-05-04T18:17:35.387Z,1.80
2023-05-04T18:20:01.857Z,1.83
2023-05-04T18:22:28.354Z,1.75
2023-05-04T18:24:54.732Z,1.85
2023-05-04T18:27:21.260Z,2.00
2023-05-04T18:29:48.587Z,1.80
2023-05-04T18:32:14.930Z,1.73
2023-05-04T18:34:41.421Z,1.90
2023-05-04T18:37:07.821Z,1.88
2023-05-04T18:39:34.254Z,2.20
2023-05-04T18:42:01.716Z,1.67
2023-05-04T18:44:28.059Z,2.05
2023-05-04T18:46:55.515Z,2.00
2023-05-04T18:49:21.937Z,2.10
2023-05-04T18:51:48.357Z,1.80
2023-05-04T18:54:16.043Z,2.17
2023-05-04T18:56:43.169Z,1.92
2023-05-04T18:59:10.767Z,1.90
2023-05-04T19:01:40.304Z,2.33
2023-05-04T19:04:06.841Z,2.00
2023-05-04T19:06:33.436Z,2.22
2023-05-04T19:08:59.911Z,2.05
2023-05-04T19:11:26.505Z,2.17
2023-05-04T19:13:53.254Z,1.90
2023-05-04T19:16:19.711Z,2.22
2023-05-04T19:18:46.143Z,2.40
2023-05-04T19:21:12.610Z,2.10
2023-05-04T19:23:38.990Z,1.85
2023-05-04T19:26:05.880Z,2.55
2023-05-04T19:28:32.366Z,2.13
2023-05-04T19:30:58.918Z,2.08
2023-05-04T19:33:36.423Z,2.20
2023-05-04T19:36:11.639Z,2.42
2023-05-04T19:38:38.108Z,2.05
2023-05-04T19:41:04.621Z,2.10
2023-05-04T19:43:31.148Z,2.33
2023-05-04T19:45:57.495Z,2.17
2023-05-04T19:48:24.301Z,2.53
2023-05-04T19:50:51.060Z,2.80
2023-05-04T19:53:17.449Z,2.20
2023-05-04T19:55:43.870Z,2.70
2023-05-04T19:58:10.888Z,2.75
2023-05-04T20:00:38.059Z,2.80
2023-05-04T20:03:05.142Z,2.67
2023-05-04T20:05:31.685Z,2.78
2023-05-04T20:07:58.146Z,2.80
2023-05-04T20:10:24.603Z,2.92
2023-05-04T20:12:51.559Z,2.60
2023-05-04T20:15:18.081Z,3.10
2023-05-04T20:17:44.527Z,2.58
2023-05-04T20:20:11.556Z,2.58
2023-05-04T20:22:38.295Z,2.40
2023-05-04T20:25:05.508Z,2.45
2023-05-04T20:27:31.888Z,2.60
2023-05-04T20:29:58.907Z,2.70
2023-05-04T20:32:25.472Z,2.40
2023-05-04T20:34:51.886Z,2.58
2023-05-04T20:37:18.299Z,3.00
2023-05-04T20:39:44.977Z,2.83
2023-05-04T20:42:11.327Z,2.80
2023-05-04T20:44:37.911Z,2.47
2023-05-04T20:47:04.672Z,2.92
2023-05-04T20:49:31.052Z,2.90
2023-05-04T20:51:57.912Z,2.33
2023-05-04T20:54:24.368Z,2.72
2023-05-04T20:56:50.720Z,2.35
2023-05-04T20:59:17.300Z,2.35
2023-05-04T21:01:43.750Z,2.60
2023-05-04T21:04:10.286Z,3.05
2023-05-04T21:06:36.983Z,2.97
2023-05-04T21:09:04.347Z,3.22
2023-05-04T21:11:30.766Z,2.90
2023-05-04T21:13:57.294Z,2.83
2023-05-04T21:16:23.776Z,2.75
2023-05-04T21:18:50.241Z,2.90
2023-05-04T21:21:16.809Z,2.65
2023-05-04T21:23:43.143Z,3.10
2023-05-04T21:26:09.544Z,2.83
2023-05-04T21:28:35.940Z,3.10
2023-05-04T21:31:06.419Z,2.67
2023-05-04T21:33:32.839Z,3.10
2023-05-04T21:35:59.272Z,3.22
2023-05-04T21:38:25.704Z,2.78
2023-05-04T21:40:52.098Z,3.08
2023-05-04T21:43:18.579Z,2.92
2023-05-04T21:45:44.942Z,2.60
2023-05-04T21:48:11.384Z,3.15
2023-05-04T21:50:37.837Z,2.92
2023-05-04T21:53:04.231Z,3.00
2023-05-04T21:55:30.668Z,3.10
2023-05-04T21:58:00.331Z,3.15
2023-05-04T22:00:26.892Z,3.17
2023-05-04T22:02:54.990Z,3.00
2023-05-04T22:05:22.406Z,2.92
2023-05-04T22:07:49.621Z,2.97
2023-05-04T22:10:16.019Z,2.63
2023-05-04T22:12:42.460Z,3.30
2023-05-04T22:15:10.208Z,2.88
2023-05-04T22:17:36.904Z,3.70
2023-05-04T22:20:03.701Z,3.20
2023-05-04T22:22:30.059Z,3.08
2023-05-04T22:24:57.120Z,3.05
2023-05-04T22:27:23.534Z,3.17
2023-05-04T22:29:49.964Z,3.08
2023-05-04T22:32:16.487Z,3.17
2023-05-04T22:34:42.922Z,3.20
2023-05-04T22:37:09.364Z,3.50
2023-05-04T22:39:35.704Z,3.08
2023-05-04T22:42:02.948Z,2.88
2023-05-04T22:44:29.569Z,3.13
2023-05-04T22:46:55.944Z,3.10
2023-05-04T22:49:22.580Z,3.30
2023-05-04T22:51:49.304Z,3.00
2023-05-04T22:54:15.757Z,3.00
2023-05-04T22:56:42.081Z,3.05
2023-05-04T22:59:08.520Z,3.22
2023-05-04T23:01:35.005Z,3.20
2023-05-04T23:04:01.497Z,3.10
2023-05-04T23:06:28.646Z,2.95
2023-05-04T23:08:55.042Z,2.53
2023-05-04T23:11:22.045Z,2.97
2023-05-04T23:13:48.534Z,2.90
2023-05-04T23:16:14.972Z,2.88
2023-05-04T23:18:41.316Z,2.95
2023-05-04T23:21:07.759Z,3.00
2023-05-04T23:23:34.998Z,3.22
2023-05-04T23:26:01.354Z,3.15
2023-05-04T23:28:27.703Z,3.13
2023-05-04T23:30:55.595Z,3.00
2023-05-04T23:33:22.101Z,2.72
2023-05-04T23:35:48.615Z,2.78
2023-05-04T23:38:14.970Z,3.20
2023-05-04T23:40:41.698Z,2.75
2023-05-04T23:43:08.213Z,2.78
2023-05-04T23:45:34.588Z,2.85
2023-05-04T23:48:01.008Z,2.63
2023-05-04T23:50:27.406Z,2.80
2023-05-04T23:52:53.752Z,2.72
2023-05-04T23:55:20.381Z,3.30
2023-05-04T23:57:46.798Z,2.70
